createdAt,value
2023-05-12T00:02:24.450Z,100.00
2023-05-12T00:04:51.633Z,100.00
2023-05-12T00:07:18.958Z,100.00
2023-05-12T00:09:46.044Z,100.00
2023-05-12T00:12:13.348Z,100.00
2023-05-12T00:14:40.496Z,100.00
2023-05-12T00:17:07.732Z,100.00
2023-05-12T00:19:35.964Z,100.00
2023-05-12T00:22:03.329Z,100.00
2023-05-12T00:24:30.649Z,100.00
2023-05-12T00:26:57.748Z,100.00
2023-05-12T00:29:24.749Z,100.00
2023-05-12T00:31:51.796Z,100.00
2023-05-12T00:34:18.869Z,100.00
2023-05-12T00:36:45.854Z,100.00
2023-05-12T00:39:13.057Z,100.00
2023-05-12T00:41:40.190Z,100.00
2023-05-12T00:44:07.553Z,100.00
2023-05-12T00:46:34.667Z,100.00
2023-05-12T00:49:02.597Z,100.00
2023-05-12T00:51:29.917Z,100.00
2023-05-12T00:53:58.451Z,100.00
2023-05-12T00:56:25.926Z,100.00
2023-05-12T00:58:52.947Z,100.00
2023-05-12T01:01:20.457Z,100.00
2023-05-12T01:03:47.662Z,100.00
2023-05-12T01:06:36.233Z,100.00
2023-05-12T01:09:03.880Z,100.00
2023-05-12T01:11:30.944Z,100.00
2023-05-12T01:13:58.020Z,100.00
2023-05-12T01:16:36.689Z,100.00
2023-05-12T01:19:10.628Z,100.00
2023-05-12T01:21:38.050Z,100.00
2023-05-12T01:24:09.298Z,100.00
2023-05-12T01:26:36.481Z,100.00
2023-05-12T01:29:05.137Z,100.00
2023-05-12T01:31:33.092Z,100.00
2023-05-12T01:34:00.897Z,100.00
2023-05-12T01:36:27.968Z,100.00
2023-05-12T01:38:55.810Z,100.00
2023-05-12T01:41:22.776Z,100.00
2023-05-12T01:43:50.947Z,100.00
2023-05-12T01:46:18.133Z,100.00
2023-05-12T01:48:45.357Z,100.00
2023-05-12T01:51:12.380Z,100.00
2023-05-12T01:53:39.432Z,100.00
2023-05-12T01:56:06.660Z,100.00
2023-05-12T01:58:33.697Z,100.00
2023-05-12T02:01:00.702Z,100.00
2023-05-12T02:03:27.773Z,100.00
2023-05-12T02:05:54.844Z,100.00
2023-05-12T02:08:21.864Z,100.00
2023-05-12T02:10:48.829Z,100.00
2023-05-12T02:13:15.805Z,100.00
2023-05-12T02:15:42.739Z,100.00
2023-05-12T02:18:09.861Z,100.00
2023-05-12T02:20:36.873Z,100.00
2023-05-12T02:23:03.906Z,100.00
2023-05-12T02:25:30.960Z,100.00
2023-05-12T02:27:57.989Z,100.00
2023-05-12T02:30:25.058Z,100.00
2023-05-12T02:32:52.159Z,100.00
2023-05-12T02:35:19.259Z,100.00
2023-05-12T02:37:46.305Z,100.00
2023-05-12T02:40:13.854Z,100.00
2023-05-12T02:42:41.362Z,100.00
2023-05-12T02:45:10.254Z,100.00
2023-05-12T02:47:37.481Z,100.00
2023-05-12T02:50:05.677Z,100.00
2023-05-12T02:52:32.821Z,100.00
2023-05-12T02:54:59.866Z,100.00
2023-05-12T02:57:32.911Z,100.00
2023-05-12T03:00:01.971Z,100.00
2023-05-12T03:02:29.093Z,100.00
2023-05-12T03:04:56.216Z,100.00
2023-05-12T03:07:23.383Z,100.00
2023-05-12T03:09:50.730Z,100.00
2023-05-12T03:12:17.826Z,100.00
2023-05-12T03:14:45.004Z,100.00
2023-05-12T03:17:12.330Z,100.00
2023-05-12T03:19:39.665Z,100.00
2023-05-12T03:22:09.578Z,100.00
2023-05-12T03:24:36.811Z,100.00
2023-05-12T03:27:04.052Z,100.00
2023-05-12T03:29:31.453Z,100.00
2023-05-12T03:31:58.513Z,100.00
2023-05-12T03:34:25.727Z,100.00
2023-05-12T03:36:52.778Z,100.00
2023-05-12T03:39:19.887Z,100.00
2023-05-12T03:41:46.986Z,100.00
2023-05-12T03:44:14.252Z,100.00
2023-05-12T03:46:41.744Z,100.00
2023-05-12T03:49:09.918Z,100.00
2023-05-12T03:51:37.072Z,100.00
2023-05-12T03:54:04.427Z,100.00
2023-05-12T03:56:31.736Z,100.00
2023-05-12T03:58:58.746Z,100.00
2023-05-12T04:01:26.002Z,100.00
2023-05-12T04:03:53.348Z,100.00
2023-05-12T04:06:20.722Z,100.00
2023-05-12T04:08:47.861Z,100.00
2023-05-12T04:11:14.934Z,100.00
2023-05-12T04:13:41.981Z,100.00
2023-05-12T04:16:09.929Z,100.00
2023-05-12T04:18:37.052Z,100.00
2023-05-12T04:21:04.338Z,100.00
2023-05-12T04:23:31.572Z,100.00
2023-05-12T04:25:59.433Z,100.00
2023-05-12T04:28:26.714Z,100.00
2023-05-12T04:30:53.802Z,100.00
2023-05-12T04:33:20.846Z,100.00
2023-05-12T04:35:47.876Z,100.00
2023-05-12T04:38:14.919Z,100.00
2023-05-12T04:40:42.143Z,100.00
2023-05-12T04:43:09.214Z,100.00
2023-05-12T04:45:36.393Z,100.00
2023-05-12T04:48:03.597Z,100.00
2023-05-12T04:50:30.668Z,100.00
2023-05-12T04:52:57.788Z,100.00
2023-05-12T04:55:25.021Z,100.00
2023-05-12T04:57:52.011Z,100.00
2023-05-12T05:00:19.427Z,100.00
2023-05-12T05:02:47.451Z,100.00
2023-05-12T05:05:14.588Z,100.00
2023-05-12T05:07:41.641Z,100.00
2023-05-12T05:10:09.319Z,100.00
2023-05-12T05:12:36.435Z,100.00
2023-05-12T05:15:03.681Z,100.00
2023-05-12T05:17:30.735Z,100.00
2023-05-12T05:19:59.643Z,100.00
2023-05-12T05:22:27.477Z,100.00
2023-05-12T05:24:54.884Z,100.00
2023-05-12T05:27:22.007Z,100.00
2023-05-12T05:29:49.457Z,100.00
2023-05-12T05:32:16.785Z,100.00
2023-05-12T05:34:43.943Z,100.00
2023-05-12T05:37:11.056Z,100.00
2023-05-12T05:39:40.373Z,100.00
2023-05-12T05:42:07.672Z,100.00
2023-05-12T05:44:34.772Z,100.00
2023-05-12T05:47:03.094Z,100.00
2023-05-12T05:49:30.528Z,100.00
2023-05-12T05:51:57.614Z,100.00
2023-05-12T05:54:25.486Z,100.00
2023-05-12T05:56:52.578Z,100.00
2023-05-12T05:59:19.670Z,100.00
2023-05-12T06:01:46.882Z,100.00
2023-05-12T06:04:13.957Z,100.00
2023-05-12T06:06:41.028Z,100.00
2023-05-12T06:09:09.704Z,100.00
2023-05-12T06:11:36.760Z,100.00
2023-05-12T06:14:03.832Z,100.00
2023-05-12T06:16:31.005Z,100.00
2023-05-12T06:18:58.160Z,100.00
2023-05-12T06:21:25.366Z,100.00
2023-05-12T06:23:52.586Z,100.00
2023-05-12T06:26:19.679Z,100.00
2023-05-12T06:28:46.711Z,100.00
2023-05-12T06:31:13.866Z,100.00
2023-05-12T06:33:40.953Z,100.00
2023-05-12T06:36:08.849Z,100.00
2023-05-12T06:38:35.894Z,100.00
2023-05-12T06:41:02.951Z,100.00
2023-05-12T06:43:29.966Z,100.00
2023-05-12T06:45:57.220Z,100.00
2023-05-12T06:48:24.565Z,100.00
2023-05-12T06:50:51.819Z,100.00
2023-05-12T06:53:18.946Z,100.00
2023-05-12T06:55:47.104Z,100.00
2023-05-12T06:58:14.166Z,100.00
2023-05-12T07:00:41.208Z,100.00
2023-05-12T07:03:10.342Z,100.00
2023-05-12T07:05:37.717Z,100.00
2023-05-12T07:08:05.526Z,100.00
2023-05-12T07:10:33.308Z,100.00
2023-05-12T07:13:00.424Z,100.00
2023-05-12T07:15:27.519Z,100.00
2023-05-12T07:17:55.868Z,100.00
2023-05-12T07:20:23.162Z,100.00
2023-05-12T07:22:52.184Z,100.00
2023-05-12T07:25:19.473Z,100.00
2023-05-12T07:27:46.939Z,100.00
2023-05-12T07:30:14.386Z,100.00
2023-05-12T07:32:41.496Z,100.00
2023-05-12T07:35:09.357Z,100.00
2023-05-12T07:37:36.389Z,100.00
2023-05-12T07:40:04.673Z,100.00
2023-05-12T07:42:31.794Z,100.00
2023-05-12T07:44:58.802Z,100.00
2023-05-12T07:47:26.305Z,100.00
2023-05-12T07:49:53.361Z,100.00
2023-05-12T07:52:20.396Z,100.00
2023-05-12T07:54:47.443Z,100.00
2023-05-12T07:57:14.431Z,100.00
2023-05-12T07:59:41.495Z,100.00
2023-05-12T08:02:09.077Z,100.00
2023-05-12T08:04:36.118Z,100.00
2023-05-12T08:07:03.428Z,100.00
2023-05-12T08:09:30.523Z,100.00
2023-05-12T08:11:57.500Z,100.00
2023-05-12T08:14:25.751Z,100.00
2023-05-12T08:16:52.920Z,100.00
2023-05-12T08:19:22.944Z,100.00
2023-05-12T08:21:49.903Z,100.00
2023-05-12T08:24:17.081Z,100.00
2023-05-12T08:26:44.164Z,100.00
2023-05-12T08:29:11.457Z,100.00
2023-05-12T08:31:38.997Z,100.00
2023-05-12T08:34:10.268Z,100.00
2023-05-12T08:36:39.808Z,100.00
2023-05-12T08:39:10.174Z,100.00
2023-05-12T08:42:09.636Z,100.00
2023-05-12T08:44:40.897Z,100.00
2023-05-12T08:47:09.496Z,100.00
2023-05-12T08:49:38.820Z,100.00
2023-05-12T08:52:07.798Z,100.00
2023-05-12T08:54:48.594Z,100.00
2023-05-12T08:57:23.567Z,100.00
2023-05-12T08:59:53.747Z,100.00
2023-05-12T09:02:23.625Z,100.00
2023-05-12T09:04:52.392Z,100.00
2023-05-12T09:07:20.076Z,100.00
2023-05-12T09:09:52.759Z,100.00
2023-05-12T09:12:21.368Z,100.00
2023-05-12T09:15:00.344Z,100.00
2023-05-12T09:17:27.594Z,100.00
2023-05-12T09:19:54.663Z,100.00
2023-05-12T09:22:33.634Z,100.00
2023-05-12T09:25:00.864Z,100.00
2023-05-12T09:27:29.326Z,100.00
2023-05-12T09:29:59.625Z,100.00
2023-05-12T09:32:45.362Z,100.00
2023-05-12T09:35:12.688Z,100.00
2023-05-12T09:37:40.486Z,100.00
2023-05-12T09:40:11.482Z,100.00
2023-05-12T09:42:38.930Z,100.00
2023-05-12T09:45:11.582Z,100.00
2023-05-12T09:47:40.670Z,100.00
2023-05-12T09:50:08.918Z,100.00
2023-05-12T09:52:39.975Z,100.00
2023-05-12T09:55:12.778Z,100.00
2023-05-12T09:57:42.949Z,100.00
2023-05-12T10:00:33.209Z,100.00
2023-05-12T10:03:18.537Z,100.00
2023-05-12T10:05:54.571Z,100.00
2023-05-12T10:08:56.458Z,100.00
2023-05-12T10:11:23.821Z,100.00
2023-05-12T10:13:52.124Z,100.00
2023-05-12T10:16:19.474Z,100.00
2023-05-12T10:18:47.620Z,100.00
2023-05-12T10:21:16.089Z,100.00
2023-05-12T10:23:45.758Z,100.00
2023-05-12T10:26:13.900Z,100.00
2023-05-12T10:28:42.927Z,100.00
2023-05-12T10:31:11.377Z,100.00
2023-05-12T10:33:38.405Z,100.00
2023-05-12T10:36:16.091Z,100.00
2023-05-12T10:38:43.515Z,100.00
2023-05-12T10:41:11.023Z,100.00
2023-05-12T10:43:49.593Z,100.00
2023-05-12T10:46:21.897Z,100.00
2023-05-12T10:49:04.379Z,100.00
2023-05-12T10:51:34.991Z,100.00
2023-05-12T10:54:08.172Z,100.00
2023-05-12T10:56:41.066Z,100.00
2023-05-12T10:59:20.379Z,100.00
2023-05-12T11:02:07.052Z,100.00
2023-05-12T11:04:53.382Z,100.00
2023-05-12T11:07:24.612Z,100.00
2023-05-12T11:09:57.849Z,100.00
2023-05-12T11:12:35.456Z,100.00
2023-05-12T11:15:05.775Z,100.00
2023-05-12T11:17:33.181Z,100.00
2023-05-12T11:20:01.631Z,100.00
2023-05-12T11:22:29.458Z,100.00
2023-05-12T11:24:56.542Z,100.00
2023-05-12T11:27:24.001Z,100.00
2023-05-12T11:30:03.027Z,100.00
2023-05-12T11:32:30.532Z,100.00
2023-05-12T11:35:13.003Z,100.00
2023-05-12T11:37:41.721Z,100.00
2023-05-12T11:40:21.720Z,100.00
2023-05-12T11:42:52.861Z,100.00
2023-05-12T11:45:29.894Z,100.00
2023-05-12T11:48:13.978Z,100.00
2023-05-12T11:50:46.895Z,100.00
2023-05-12T11:53:17.531Z,100.00
2023-05-12T11:55:57.397Z,100.00
2023-05-12T11:58:30.651Z,100.00
2023-05-12T12:01:10.120Z,100.00
2023-05-12T12:03:49.703Z,100.00
2023-05-12T12:06:17.936Z,100.00
2023-05-12T12:08:57.369Z,100.00
2023-05-12T12:11:30.568Z,100.00
2023-05-12T12:13:58.009Z,100.00
2023-05-12T12:16:27.111Z,100.00
2023-05-12T12:18:54.581Z,100.00
2023-05-12T12:21:23.525Z,100.00
2023-05-12T12:23:52.024Z,99.22
2023-05-12T12:26:21.080Z,98.25
2023-05-12T12:28:48.669Z,99.10
2023-05-12T12:31:16.825Z,100.00
2023-05-12T12:33:43.934Z,100.00
2023-05-12T12:36:11.033Z,100.00
2023-05-12T12:38:38.113Z,98.81
2023-05-12T12:41:06.401Z,98.92
2023-05-12T12:43:33.553Z,100.00
2023-05-12T12:46:00.559Z,100.00
2023-05-12T12:48:28.952Z,100.00
2023-05-12T12:50:56.358Z,100.00
2023-05-12T12:53:23.690Z,100.00
2023-05-12T12:55:51.176Z,96.60
2023-05-12T12:58:18.299Z,95.46
2023-05-12T13:00:45.571Z,93.13
2023-05-12T13:03:12.741Z,90.61
2023-05-12T13:05:39.771Z,89.37
2023-05-12T13:08:07.474Z,88.59
2023-05-12T13:10:35.376Z,87.39
2023-05-12T13:13:02.365Z,87.87
2023-05-12T13:15:32.191Z,88.43
2023-05-12T13:17:59.588Z,85.56
2023-05-12T13:20:26.825Z,83.31
2023-05-12T13:22:53.970Z,82.04
2023-05-12T13:25:21.284Z,81.76
2023-05-12T13:27:48.754Z,83.76
2023-05-12T13:30:15.867Z,85.47
2023-05-12T13:32:43.078Z,84.38
2023-05-12T13:35:10.602Z,84.30
2023-05-12T13:37:37.840Z,83.43
2023-05-12T13:40:05.487Z,82.95
2023-05-12T13:42:32.590Z,83.68
2023-05-12T13:44:59.781Z,83.45
2023-05-12T13:47:27.508Z,84.81
2023-05-12T13:49:56.557Z,85.70
2023-05-12T13:52:23.625Z,84.30
2023-05-12T13:54:51.226Z,83.18
2023-05-12T13:57:18.315Z,82.03
2023-05-12T13:59:48.079Z,80.67
2023-05-12T14:02:15.156Z,79.65
2023-05-12T14:04:42.317Z,78.36
2023-05-12T14:07:10.071Z,79.17
2023-05-12T14:09:37.557Z,80.63
2023-05-12T14:12:05.445Z,80.18
2023-05-12T14:14:32.604Z,81.39
2023-05-12T14:16:59.599Z,81.63
2023-05-12T14:19:26.642Z,80.79
2023-05-12T14:21:53.662Z,80.76
2023-05-12T14:24:21.145Z,81.42
2023-05-12T14:26:48.182Z,81.83
2023-05-12T14:29:15.245Z,82.07
2023-05-12T14:31:42.321Z,82.74
2023-05-12T14:34:09.430Z,80.68
2023-05-12T14:36:36.506Z,80.02
2023-05-12T14:39:03.830Z,79.82
2023-05-12T14:41:30.965Z,80.46
2023-05-12T14:43:58.342Z,79.55
2023-05-12T14:46:25.846Z,78.21
2023-05-12T14:48:53.023Z,77.09
2023-05-12T14:51:20.156Z,77.01
2023-05-12T14:53:47.209Z,77.37
2023-05-12T14:56:14.389Z,75.93
2023-05-12T14:58:41.379Z,75.83
2023-05-12T15:01:09.442Z,75.84
2023-05-12T15:03:44.922Z,75.48
2023-05-12T15:06:12.820Z,76.11
2023-05-12T15:08:40.782Z,75.70
2023-05-12T15:11:07.855Z,75.37
2023-05-12T15:13:34.961Z,74.03
2023-05-12T15:16:03.024Z,73.14
2023-05-12T15:18:30.433Z,73.05
2023-05-12T15:20:57.564Z,72.72
2023-05-12T15:23:24.616Z,72.56
2023-05-12T15:25:51.848Z,72.50
2023-05-12T15:28:19.029Z,71.11
2023-05-12T15:30:56.130Z,70.50
2023-05-12T15:33:23.835Z,70.73
2023-05-12T15:35:51.137Z,71.05
2023-05-12T15:38:18.641Z,71.59
2023-05-12T15:40:47.126Z,69.94
2023-05-12T15:43:14.474Z,70.51
2023-05-12T15:45:41.505Z,70.61
2023-05-12T15:48:09.631Z,70.02
2023-05-12T15:50:37.278Z,70.49
2023-05-12T15:53:04.394Z,70.89
2023-05-12T15:55:32.336Z,71.40
2023-05-12T15:57:59.878Z,71.83
2023-05-12T16:00:27.025Z,73.36
2023-05-12T16:02:54.826Z,74.43
2023-05-12T16:05:24.148Z,75.61
2023-05-12T16:07:51.180Z,75.54
2023-05-12T16:10:18.394Z,74.48
2023-05-12T16:12:46.148Z,71.90
2023-05-12T16:15:13.493Z,70.96
2023-05-12T16:17:40.726Z,68.19
2023-05-12T16:20:09.235Z,67.03
2023-05-12T16:22:36.335Z,62.47
2023-05-12T16:25:04.958Z,61.25
2023-05-12T16:27:33.631Z,60.32
2023-05-12T16:30:00.653Z,60.86
2023-05-12T16:32:27.621Z,60.91
2023-05-12T16:34:54.850Z,61.41
2023-05-12T16:37:22.853Z,61.97
2023-05-12T16:39:49.974Z,62.86
2023-05-12T16:42:17.048Z,62.94
2023-05-12T16:44:44.031Z,63.79
2023-05-12T16:47:11.169Z,64.12
2023-05-12T16:49:38.238Z,65.17
2023-05-12T16:52:06.047Z,66.04
2023-05-12T16:54:33.212Z,66.88
2023-05-12T16:57:02.298Z,67.51
2023-05-12T16:59:32.498Z,68.70
2023-05-12T17:02:00.208Z,69.40
2023-05-12T17:04:27.449Z,70.39
2023-05-12T17:06:54.737Z,71.62
2023-05-12T17:09:23.154Z,73.68
2023-05-12T17:11:50.554Z,76.08
2023-05-12T17:14:19.442Z,78.70
2023-05-12T17:16:46.798Z,83.02
2023-05-12T17:19:14.404Z,87.13
2023-05-12T17:21:42.414Z,90.08
2023-05-12T17:24:09.611Z,93.59
2023-05-12T17:26:36.665Z,99.58
2023-05-12T17:29:03.796Z,100.00
2023-05-12T17:31:30.959Z,100.00
2023-05-12T17:33:58.081Z,100.00
2023-05-12T17:36:25.201Z,100.00
2023-05-12T17:38:52.284Z,100.00
2023-05-12T17:41:19.662Z,100.00
2023-05-12T17:43:47.008Z,100.00
2023-05-12T17:46:14.416Z,100.00
2023-05-12T17:48:41.588Z,100.00
2023-05-12T17:51:08.796Z,100.00
2023-05-12T17:53:35.953Z,100.00
2023-05-12T17:56:03.121Z,100.00
2023-05-12T17:58:30.359Z,100.00
2023-05-12T18:00:57.512Z,100.00
2023-05-12T18:03:24.824Z,100.00
2023-05-12T18:05:54.205Z,100.00
2023-05-12T18:08:21.845Z,100.00
2023-05-12T18:10:49.139Z,100.00
2023-05-12T18:13:16.293Z,100.00
2023-05-12T18:15:43.661Z,100.00
2023-05-12T18:18:10.973Z,100.00
2023-05-12T18:20:38.361Z,100.00
2023-05-12T18:23:05.564Z,100.00
2023-05-12T18:25:32.600Z,100.00
2023-05-12T18:27:59.622Z,100.00
2023-05-12T18:30:26.676Z,100.00
2023-05-12T18:32:53.985Z,100.00
2023-05-12T18:35:21.895Z,100.00
2023-05-12T18:37:49.555Z,100.00
2023-05-12T18:40:16.935Z,100.00
2023-05-12T18:42:44.146Z,100.00
2023-05-12T18:45:11.994Z,100.00
2023-05-12T18:47:39.444Z,100.00
2023-05-12T18:50:07.664Z,100.00
2023-05-12T18:52:34.796Z,100.00
2023-05-12T18:55:01.902Z,100.00
2023-05-12T18:57:29.064Z,100.00
2023-05-12T18:59:56.100Z,100.00
2023-05-12T19:02:23.140Z,100.00
2023-05-12T19:04:50.328Z,100.00
2023-05-12T19:07:17.451Z,100.00
2023-05-12T19:09:44.528Z,100.00
2023-05-12T19:12:11.853Z,100.00
2023-05-12T19:14:40.364Z,100.00
2023-05-12T19:17:07.802Z,100.00
2023-05-12T19:19:35.291Z,100.00
2023-05-12T19:22:04.430Z,100.00
2023-05-12T19:24:31.582Z,100.00
2023-05-12T19:26:58.794Z,100.00
2023-05-12T19:29:26.165Z,100.00
2023-05-12T19:31:53.716Z,100.00
2023-05-12T19:34:21.578Z,100.00
2023-05-12T19:36:48.733Z,100.00
2023-05-12T19:39:15.785Z,100.00
2023-05-12T19:41:42.938Z,100.00
2023-05-12T19:44:10.081Z,100.00
2023-05-12T19:46:37.197Z,100.00
2023-05-12T19:49:05.842Z,100.00
2023-05-12T19:51:33.136Z,100.00
2023-05-12T19:54:01.928Z,100.00
2023-05-12T19:56:29.910Z,100.00
2023-05-12T19:58:56.913Z,100.00
2023-05-12T20:01:24.304Z,100.00
2023-05-12T20:03:52.779Z,100.00
2023-05-12T20:06:20.453Z,100.00
2023-05-12T20:08:47.456Z,100.00
2023-05-12T20:11:14.441Z,100.00
2023-05-12T20:13:41.428Z,100.00
2023-05-12T20:16:09.061Z,100.00
2023-05-12T20:18:36.106Z,100.00
2023-05-12T20:21:03.512Z,100.00
2023-05-12T20:23:30.520Z,100.00
2023-05-12T20:25:57.804Z,100.00
2023-05-12T20:28:25.042Z,100.00
2023-05-12T20:30:54.713Z,100.00
2023-05-12T20:33:24.784Z,100.00
2023-05-12T20:35:54.289Z,100.00
2023-05-12T20:38:21.353Z,100.00
2023-05-12T20:40:48.558Z,100.00
2023-05-12T20:43:15.597Z,100.00
2023-05-12T20:45:43.074Z,100.00
2023-05-12T20:48:10.592Z,100.00
2023-05-12T20:50:37.773Z,100.00
2023-05-12T20:53:04.988Z,100.00
2023-05-12T20:55:35.403Z,100.00
2023-05-12T20:58:02.565Z,100.00
2023-05-12T21:00:29.607Z,100.00
2023-05-12T21:02:58.068Z,100.00
2023-05-12T21:05:25.646Z,100.00
2023-05-12T21:07:52.646Z,100.00
2023-05-12T21:10:20.267Z,100.00
2023-05-12T21:12:47.623Z,100.00
2023-05-12T21:15:14.863Z,100.00
2023-05-12T21:17:42.381Z,100.00
2023-05-12T21:20:11.827Z,100.00
2023-05-12T21:22:40.844Z,100.00
2023-05-12T21:25:09.156Z,100.00
2023-05-12T21:27:40.893Z,100.00
2023-05-12T21:30:10.246Z,100.00
2023-05-12T21:32:37.492Z,100.00
2023-05-12T21:35:05.906Z,100.00
2023-05-12T21:37:34.359Z,100.00
2023-05-12T21:40:01.588Z,100.00
2023-05-12T21:42:28.668Z,100.00
2023-05-12T21:44:56.067Z,100.00
2023-05-12T21:47:23.285Z,100.00
2023-05-12T21:49:55.374Z,100.00
2023-05-12T21:52:22.942Z,100.00
2023-05-12T21:54:49.921Z,100.00
2023-05-12T21:57:17.088Z,100.00
2023-05-12T21:59:45.026Z,100.00
2023-05-12T22:02:12.223Z,100.00
2023-05-12T22:04:39.320Z,100.00
2023-05-12T22:07:06.360Z,100.00
2023-05-12T22:09:33.518Z,100.00
2023-05-12T22:12:00.589Z,100.00
2023-05-12T22:14:27.660Z,100.00
2023-05-12T22:16:56.009Z,100.00
2023-05-12T22:19:23.245Z,100.00
2023-05-12T22:21:50.844Z,100.00
2023-05-12T22:24:17.886Z,100.00
2023-05-12T22:26:44.912Z,100.00
2023-05-12T22:29:12.054Z,100.00
2023-05-12T22:31:39.151Z,100.00
2023-05-12T22:34:06.154Z,100.00
2023-05-12T22:36:33.343Z,100.00
2023-05-12T22:39:00.537Z,100.00
2023-05-12T22:41:28.063Z,100.00
2023-05-12T22:43:55.068Z,100.00
2023-05-12T22:46:22.248Z,100.00
2023-05-12T22:48:50.861Z,100.00
2023-05-12T22:51:17.918Z,100.00
2023-05-12T22:53:44.892Z,100.00
2023-05-12T22:56:11.931Z,100.00
2023-05-12T22:58:38.896Z,100.00
2023-05-12T23:01:06.362Z,100.00
2023-05-12T23:03:33.882Z,100.00
2023-05-12T23:06:01.107Z,100.00
2023-05-12T23:08:28.099Z,100.00
2023-05-12T23:10:55.261Z,100.00
2023-05-12T23:13:22.385Z,100.00
2023-05-12T23:15:49.480Z,100.00
2023-05-12T23:18:16.466Z,100.00
2023-05-12T23:20:43.463Z,100.00
2023-05-12T23:23:11.073Z,100.00
2023-05-12T23:25:38.869Z,100.00
2023-05-12T23:28:06.577Z,100.00
2023-05-12T23:30:33.615Z,100.00
2023-05-12T23:33:00.941Z,100.00
2023-05-12T23:35:28.247Z,100.00
2023-05-12T23:37:55.225Z,100.00
2023-05-12T23:40:22.483Z,100.00
2023-05-12T23:42:49.839Z,100.00
2023-05-12T23:45:16.995Z,100.00
2023-05-12T23:47:44.220Z,100.00
2023-05-12T23:50:11.395Z,100.00
2023-05-12T23:52:38.480Z,100.00
2023-05-12T23:55:06.103Z,100.00
2023-05-12T23:57:33.119Z,100.00
